createdAt,value
2019-01-08T00:01:36.131Z,29.60
2019-01-08T00:04:06.374Z,28.07
2019-01-08T00:06:36.656Z,27.43
2019-01-08T00:09:07.790Z,26.00
2019-01-08T00:11:38.416Z,26.97
2019-01-08T00:14:08.865Z,24.97
2019-01-08T00:16:39.206Z,26.27
2019-01-08T00:19:09.574Z,29.97
2019-01-08T00:21:39.905Z,30.93
2019-01-08T00:24:10.057Z,29.20
2019-01-08T00:26:40.702Z,31.27
2019-01-08T00:29:11.249Z,30.40
2019-01-08T00:31:42.019Z,28.53
2019-01-08T00:34:12.640Z,30.73
2019-01-08T00:36:43.358Z,29.27
2019-01-08T00:39:14.223Z,35.37
2019-01-08T00:41:44.486Z,34.17
2019-01-08T00:44:14.738Z,27.63
2019-01-08T00:46:45.130Z,30.10
2019-01-08T00:49:15.825Z,31.07
2019-01-08T00:51:46.417Z,33.83
2019-01-08T00:54:16.785Z,30.80
2019-01-08T00:56:47.225Z,32.17
2019-01-08T00:59:17.856Z,32.30
2019-01-08T01:01:48.613Z,36.50
2019-01-08T01:04:18.952Z,32.07
2019-01-08T01:06:49.314Z,32.30
2019-01-08T01:09:19.984Z,32.43
2019-01-08T01:11:50.683Z,35.07
2019-01-08T01:14:20.968Z,33.30
2019-01-08T01:16:51.619Z,33.23
2019-01-08T01:19:21.999Z,36.77
2019-01-08T01:21:52.751Z,35.47
2019-01-08T01:24:23.004Z,36.47
2019-01-08T01:26:53.345Z,34.13
2019-01-08T01:29:24.381Z,32.20
2019-01-08T01:31:54.932Z,40.30
2019-01-08T01:34:25.504Z,35.77
2019-01-08T01:36:56.361Z,37.63
2019-01-08T01:39:26.684Z,35.57
2019-01-08T01:41:57.395Z,33.17
2019-01-08T01:44:28.094Z,32.03
2019-01-08T01:46:58.363Z,32.97
2019-01-08T01:49:29.204Z,34.47
2019-01-08T01:51:59.648Z,32.87
2019-01-08T01:54:30.154Z,30.77
2019-01-08T01:57:00.743Z,32.10
2019-01-08T01:59:31.178Z,31.33
2019-01-08T02:02:01.768Z,31.63
2019-01-08T02:04:32.362Z,32.67
2019-01-08T02:07:02.659Z,26.50
2019-01-08T02:09:33.094Z,30.07
2019-01-08T02:12:03.475Z,28.50
2019-01-08T02:14:33.980Z,30.60
2019-01-08T02:17:23.330Z,32.07
2019-01-08T02:19:53.525Z,34.43
2019-01-08T02:22:23.691Z,29.27
2019-01-08T02:24:54.062Z,32.30
2019-01-08T02:27:24.473Z,30.00
2019-01-08T02:30:01.119Z,32.27
2019-01-08T02:32:31.937Z,31.07
2019-01-08T02:35:02.991Z,29.87
2019-01-08T02:37:33.460Z,29.63
2019-01-08T02:40:03.790Z,30.33
2019-01-08T02:42:34.006Z,26.50
2019-01-08T02:45:04.486Z,24.43
2019-01-08T02:47:34.776Z,28.03
2019-01-08T02:50:05.413Z,28.77
2019-01-08T02:52:36.079Z,29.73
2019-01-08T02:55:06.518Z,29.30
2019-01-08T02:57:36.976Z,27.40
2019-01-08T03:00:07.550Z,32.17
2019-01-08T03:02:37.968Z,27.27
2019-01-08T03:05:08.838Z,26.43
2019-01-08T03:07:39.057Z,27.97
2019-01-08T03:10:09.690Z,31.53
2019-01-08T03:12:40.090Z,29.43
2019-01-08T03:15:10.492Z,22.40
2019-01-08T03:17:40.681Z,26.73
2019-01-08T03:20:11.067Z,30.93
2019-01-08T03:22:42.107Z,27.13
2019-01-08T03:25:12.797Z,31.63
2019-01-08T03:27:43.218Z,24.83
2019-01-08T03:30:13.307Z,30.00
2019-01-08T03:32:43.708Z,26.90
2019-01-08T03:35:13.958Z,27.87
2019-01-08T03:37:44.666Z,28.43
2019-01-08T03:40:14.899Z,28.53
2019-01-08T03:42:45.545Z,24.33
2019-01-08T03:45:16.346Z,25.77
2019-01-08T03:47:46.880Z,26.37
2019-01-08T03:50:17.127Z,22.90
2019-01-08T03:52:47.345Z,26.87
2019-01-08T03:55:17.975Z,25.60
2019-01-08T03:57:48.417Z,24.20
2019-01-08T04:00:18.689Z,26.70
2019-01-08T04:02:48.912Z,29.13
2019-01-08T04:05:19.674Z,24.67
2019-01-08T04:07:49.931Z,26.37
2019-01-08T04:10:20.630Z,21.27
2019-01-08T04:12:51.300Z,27.60
2019-01-08T04:15:21.615Z,29.37
2019-01-08T04:17:51.947Z,25.97
2019-01-08T04:20:22.200Z,22.07
2019-01-08T04:22:52.736Z,24.13
2019-01-08T04:25:22.971Z,26.83
2019-01-08T04:27:55.972Z,26.23
2019-01-08T04:30:25.918Z,26.77
2019-01-08T04:32:56.571Z,27.20
2019-01-08T04:35:27.084Z,25.60
2019-01-08T04:37:57.597Z,27.40
2019-01-08T04:40:27.826Z,27.33
2019-01-08T04:42:58.147Z,28.23
2019-01-08T04:45:28.388Z,28.63
2019-01-08T04:47:58.689Z,24.97
2019-01-08T04:50:29.412Z,25.67
2019-01-08T04:52:59.755Z,25.87
2019-01-08T04:55:30.000Z,20.17
2019-01-08T04:58:00.302Z,29.00
2019-01-08T05:00:30.909Z,21.97
2019-01-08T05:03:01.518Z,26.87
2019-01-08T05:05:31.892Z,22.17
2019-01-08T05:08:02.144Z,24.40
2019-01-08T05:10:32.328Z,23.63
2019-01-08T05:13:02.481Z,20.90
2019-01-08T05:15:32.832Z,20.80
2019-01-08T05:18:03.124Z,23.33
2019-01-08T05:20:33.700Z,20.10
2019-01-08T05:23:04.008Z,17.93
2019-01-08T05:25:34.402Z,21.97
2019-01-08T05:28:04.648Z,17.90
2019-01-08T05:30:35.017Z,16.80
2019-01-08T05:33:05.192Z,19.17
2019-01-08T05:35:35.353Z,18.57
2019-01-08T05:38:05.887Z,16.27
2019-01-08T05:40:36.445Z,16.80
2019-01-08T05:43:06.561Z,18.63
2019-01-08T05:45:36.899Z,20.10
2019-01-08T05:48:07.325Z,18.93
2019-01-08T05:50:37.639Z,18.20
2019-01-08T05:53:07.978Z,16.77
2019-01-08T05:55:38.348Z,17.60
2019-01-08T05:58:08.994Z,16.43
2019-01-08T06:00:39.225Z,14.87
2019-01-08T06:03:09.431Z,17.93
2019-01-08T06:05:39.692Z,17.47
2019-01-08T06:08:09.919Z,15.77
2019-01-08T06:10:40.466Z,13.07
2019-01-08T06:13:10.670Z,11.60
2019-01-08T06:15:41.107Z,13.03
2019-01-08T06:18:11.574Z,10.87
2019-01-08T06:20:42.196Z,13.13
2019-01-08T06:23:12.469Z,9.83
2019-01-08T06:25:43.134Z,11.33
2019-01-08T06:28:13.500Z,10.07
2019-01-08T06:30:43.804Z,9.10
2019-01-08T06:33:14.509Z,11.60
2019-01-08T06:35:45.707Z,13.43
2019-01-08T06:38:15.963Z,11.17
2019-01-08T06:40:46.279Z,10.10
2019-01-08T06:43:17.589Z,10.17
2019-01-08T06:45:47.977Z,13.33
2019-01-08T06:48:18.121Z,12.17
2019-01-08T06:50:55.839Z,13.43
2019-01-08T06:53:20.514Z,8.37
2019-01-08T06:55:50.805Z,16.10
2019-01-08T06:58:21.479Z,14.33
2019-01-08T07:00:52.014Z,16.83
2019-01-08T07:03:22.425Z,15.67
2019-01-08T07:05:52.643Z,13.57
2019-01-08T07:08:22.972Z,16.03
2019-01-08T07:10:53.290Z,13.73
2019-01-08T07:13:23.624Z,19.23
2019-01-08T07:15:54.113Z,14.60
2019-01-08T07:18:24.303Z,20.73
2019-01-08T07:20:54.743Z,17.47
2019-01-08T07:23:25.085Z,25.97
2019-01-08T07:25:55.458Z,15.97
2019-01-08T07:28:26.122Z,18.50
2019-01-08T07:30:56.242Z,18.60
2019-01-08T07:33:26.667Z,15.80
2019-01-08T07:35:56.994Z,17.90
2019-01-08T07:38:27.194Z,17.77
2019-01-08T07:40:57.383Z,18.47
2019-01-08T07:43:27.687Z,13.03
2019-01-08T07:45:57.842Z,17.27
2019-01-08T07:48:28.026Z,14.37
2019-01-08T07:50:58.292Z,14.63
2019-01-08T07:53:29.006Z,14.97
2019-01-08T07:55:59.352Z,13.40
2019-01-08T07:58:30.022Z,15.67
2019-01-08T08:01:00.259Z,14.87
2019-01-08T08:03:30.886Z,16.33
2019-01-08T08:06:01.459Z,15.60
2019-01-08T08:08:31.934Z,15.30
2019-01-08T08:11:02.520Z,16.23
2019-01-08T08:13:32.801Z,15.83
2019-01-08T08:16:03.296Z,17.70
2019-01-08T08:18:33.573Z,15.13
2019-01-08T08:21:03.816Z,16.33
2019-01-08T08:23:33.986Z,18.27
2019-01-08T08:26:04.319Z,18.23
2019-01-08T08:28:34.658Z,17.20
2019-01-08T08:31:05.046Z,16.77
2019-01-08T08:33:35.332Z,16.97
2019-01-08T08:36:05.664Z,19.57
2019-01-08T08:38:35.888Z,17.80
2019-01-08T08:41:06.155Z,18.40
2019-01-08T08:43:36.322Z,15.03
2019-01-08T08:46:06.728Z,18.03
2019-01-08T08:48:37.060Z,18.20
2019-01-08T08:51:07.651Z,17.47
2019-01-08T08:53:38.583Z,19.63
2019-01-08T08:56:08.937Z,19.27
2019-01-08T08:58:39.074Z,17.73
2019-01-08T09:01:09.814Z,19.13
2019-01-08T09:03:40.110Z,19.30
2019-01-08T09:06:10.339Z,19.40
2019-01-08T09:08:40.755Z,17.93
2019-01-08T09:11:10.970Z,20.03
2019-01-08T09:13:41.287Z,20.80
2019-01-08T09:16:11.802Z,19.30
2019-01-08T09:18:42.166Z,19.07
2019-01-08T09:21:12.532Z,19.13
2019-01-08T09:23:43.145Z,19.07
2019-01-08T09:26:13.317Z,20.07
2019-01-08T09:28:43.938Z,18.17
2019-01-08T09:31:15.576Z,20.53
2019-01-08T09:33:46.063Z,15.53
2019-01-08T09:36:16.417Z,13.90
2019-01-08T09:38:46.726Z,12.93
2019-01-08T09:41:17.269Z,15.07
2019-01-08T09:43:47.683Z,15.07
2019-01-08T09:46:17.927Z,13.87
2019-01-08T09:48:48.175Z,15.67
2019-01-08T09:51:18.790Z,16.53
2019-01-08T09:53:49.162Z,17.67
2019-01-08T09:56:19.451Z,16.03
2019-01-08T09:58:49.655Z,16.27
2019-01-08T10:01:24.108Z,14.60
2019-01-08T10:03:52.726Z,18.03
2019-01-08T10:06:23.389Z,16.17
2019-01-08T10:08:53.933Z,15.27
2019-01-08T10:11:24.218Z,14.93
2019-01-08T10:13:54.519Z,18.93
2019-01-08T10:16:24.891Z,14.43
2019-01-08T10:18:55.633Z,18.27
2019-01-08T10:21:26.147Z,14.77
2019-01-08T10:23:56.347Z,16.67
2019-01-08T10:26:26.822Z,15.27
2019-01-08T10:28:57.118Z,13.93
2019-01-08T10:31:32.401Z,13.57
2019-01-08T10:33:59.481Z,15.43
2019-01-08T10:36:29.775Z,13.40
2019-01-08T10:39:00.185Z,13.93
2019-01-08T10:41:30.556Z,12.50
2019-01-08T10:44:01.107Z,12.77
2019-01-08T10:46:37.425Z,14.80
2019-01-08T10:49:03.337Z,13.33
2019-01-08T10:51:33.604Z,12.43
2019-01-08T10:54:03.869Z,12.00
2019-01-08T10:56:34.503Z,14.30
2019-01-08T10:59:07.705Z,13.33
2019-01-08T11:01:40.675Z,11.33
2019-01-08T11:04:08.816Z,11.47
2019-01-08T11:06:39.251Z,12.73
2019-01-08T11:09:09.549Z,15.37
2019-01-08T11:11:39.981Z,13.30
2019-01-08T11:14:10.231Z,12.33
2019-01-08T11:16:40.535Z,14.57
2019-01-08T11:19:10.759Z,12.13
2019-01-08T11:21:40.903Z,13.33
2019-01-08T11:24:11.310Z,16.40
2019-01-08T11:26:41.711Z,14.10
2019-01-08T11:29:12.011Z,11.83
2019-01-08T11:31:48.824Z,11.67
2019-01-08T11:34:15.156Z,14.23
2019-01-08T11:36:45.544Z,11.87
2019-01-08T11:39:16.302Z,12.50
2019-01-08T11:41:46.538Z,13.33
2019-01-08T11:44:16.745Z,10.87
2019-01-08T11:46:47.055Z,10.07
2019-01-08T11:49:17.747Z,10.80
2019-01-08T11:51:48.192Z,11.20
2019-01-08T11:54:18.755Z,11.67
2019-01-08T11:56:49.148Z,12.00
2019-01-08T11:59:19.438Z,10.50
2019-01-08T12:01:57.230Z,10.80
2019-01-08T12:04:21.888Z,9.57
2019-01-08T12:06:52.116Z,10.83
2019-01-08T12:09:22.381Z,13.30
2019-01-08T12:11:52.688Z,10.13
2019-01-08T12:14:23.023Z,10.57
2019-01-08T12:16:53.882Z,18.40
2019-01-08T12:19:24.185Z,12.20
2019-01-08T12:21:54.522Z,15.20
2019-01-08T12:24:24.715Z,16.43
2019-01-08T12:26:55.225Z,8.47
2019-01-08T12:29:25.789Z,8.43
2019-01-08T12:31:56.075Z,9.47
2019-01-08T12:34:26.341Z,10.73
2019-01-08T12:36:56.689Z,8.03
2019-01-08T12:39:26.962Z,9.83
2019-01-08T12:41:57.631Z,14.20
2019-01-08T12:44:27.972Z,15.90
2019-01-08T12:46:58.348Z,9.07
2019-01-08T12:49:28.710Z,8.23
2019-01-08T12:51:59.023Z,8.57
2019-01-08T12:54:29.262Z,9.30
2019-01-08T12:56:59.596Z,7.53
2019-01-08T12:59:29.913Z,9.10
2019-01-08T13:02:00.206Z,8.30
2019-01-08T13:04:30.520Z,6.83
2019-01-08T13:07:01.211Z,6.37
2019-01-08T13:09:31.500Z,5.00
2019-01-08T13:12:02.003Z,5.23
2019-01-08T13:14:32.389Z,6.53
2019-01-08T13:17:11.218Z,6.83
2019-01-08T13:19:34.959Z,5.73
2019-01-08T13:22:05.296Z,8.07
2019-01-08T13:24:35.572Z,4.43
2019-01-08T13:27:05.992Z,6.60
2019-01-08T13:29:36.392Z,6.33
2019-01-08T13:32:06.617Z,6.27
2019-01-08T13:34:36.882Z,7.13
2019-01-08T13:37:07.127Z,6.77
2019-01-08T13:39:38.063Z,8.33
2019-01-08T13:42:08.627Z,6.23
2019-01-08T13:44:38.979Z,6.07
2019-01-08T13:47:09.345Z,7.93
2019-01-08T13:49:39.714Z,7.60
2019-01-08T13:52:10.669Z,7.00
2019-01-08T13:54:41.069Z,4.80
2019-01-08T13:57:11.514Z,5.87
2019-01-08T13:59:42.192Z,4.60
2019-01-08T14:02:12.445Z,3.87
2019-01-08T14:04:42.792Z,7.17
2019-01-08T14:07:13.258Z,5.73
2019-01-08T14:09:43.545Z,5.93
2019-01-08T14:12:13.788Z,8.93
2019-01-08T14:14:44.049Z,6.70
2019-01-08T14:17:14.338Z,8.87
2019-01-08T14:19:44.650Z,8.40
2019-01-08T14:22:14.860Z,6.43
2019-01-08T14:24:45.758Z,5.33
2019-01-08T14:27:16.105Z,8.40
2019-01-08T14:29:46.524Z,6.67
2019-01-08T14:32:16.908Z,5.87
2019-01-08T14:34:47.633Z,8.10
2019-01-08T14:37:18.434Z,7.63
2019-01-08T14:39:48.725Z,10.07
2019-01-08T14:42:19.066Z,6.67
2019-01-08T14:44:49.489Z,6.97
2019-01-08T14:47:19.735Z,6.37
2019-01-08T14:49:50.355Z,7.60
2019-01-08T14:52:20.628Z,6.33
2019-01-08T14:54:51.508Z,10.13
2019-01-08T14:57:21.791Z,6.90
2019-01-08T14:59:52.389Z,8.57
2019-01-08T15:02:22.828Z,9.60
2019-01-08T15:04:53.229Z,7.60
2019-01-08T15:07:24.253Z,8.00
2019-01-08T15:09:54.521Z,10.30
2019-01-08T15:12:24.918Z,9.93
2019-01-08T15:14:55.334Z,11.40
2019-01-08T15:17:25.892Z,11.00
2019-01-08T15:19:56.435Z,7.13
2019-01-08T15:22:26.687Z,5.47
2019-01-08T15:24:56.961Z,7.93
2019-01-08T15:27:27.262Z,7.87
2019-01-08T15:29:57.830Z,7.20
2019-01-08T15:32:28.595Z,7.83
2019-01-08T15:34:59.179Z,8.43
2019-01-08T15:37:29.505Z,10.47
2019-01-08T15:39:59.796Z,6.07
2019-01-08T15:42:30.097Z,8.30
2019-01-08T15:45:00.667Z,5.03
2019-01-08T15:47:30.971Z,4.40
2019-01-08T15:50:01.255Z,9.40
2019-01-08T15:52:31.607Z,7.07
2019-01-08T15:55:01.904Z,6.40
2019-01-08T15:57:32.137Z,5.27
2019-01-08T16:00:02.469Z,6.67
2019-01-08T16:02:32.763Z,6.23
2019-01-08T16:05:03.258Z,5.43
2019-01-08T16:07:33.682Z,6.60
2019-01-08T16:10:04.163Z,8.47
2019-01-08T16:12:34.441Z,6.13
2019-01-08T16:15:05.230Z,4.87
2019-01-08T16:17:35.500Z,9.97
2019-01-08T16:20:06.236Z,11.63
2019-01-08T16:22:36.598Z,6.93
2019-01-08T16:25:36.045Z,8.23
2019-01-08T16:28:06.610Z,15.77
2019-01-08T16:30:37.337Z,8.93
2019-01-08T16:33:15.700Z,9.47
2019-01-08T16:35:40.095Z,9.67
2019-01-08T16:38:10.458Z,10.57
2019-01-08T16:40:40.750Z,10.00
2019-01-08T16:43:11.452Z,5.63
2019-01-08T16:45:42.050Z,6.23
2019-01-08T16:48:12.414Z,6.93
2019-01-08T16:50:42.625Z,10.97
2019-01-08T16:53:12.828Z,15.20
2019-01-08T16:55:43.139Z,12.17
2019-01-08T16:58:13.417Z,16.70
2019-01-08T17:00:43.812Z,10.73
2019-01-08T17:03:14.190Z,10.63
2019-01-08T17:05:44.743Z,10.40
2019-01-08T17:08:15.155Z,8.43
2019-01-08T17:10:45.446Z,7.97
2019-01-08T17:13:15.992Z,10.00
2019-01-08T17:15:46.722Z,6.33
2019-01-08T17:18:16.979Z,7.03
2019-01-08T17:20:47.126Z,12.47
2019-01-08T17:23:17.493Z,11.47
2019-01-08T17:25:48.293Z,10.40
2019-01-08T17:28:18.690Z,7.37
2019-01-08T17:30:48.984Z,7.93
2019-01-08T17:33:19.380Z,9.67
2019-01-08T17:35:49.703Z,7.43
2019-01-08T17:38:19.947Z,10.73
2019-01-08T17:40:50.744Z,9.23
2019-01-08T17:43:21.010Z,9.27
2019-01-08T17:45:52.906Z,9.37
2019-01-08T17:48:23.592Z,10.30
2019-01-08T17:50:54.381Z,12.90
2019-01-08T17:53:24.819Z,18.87
2019-01-08T17:55:55.140Z,6.33
2019-01-08T17:58:40.822Z,9.67
2019-01-08T18:01:27.891Z,7.20
2019-01-08T18:03:58.165Z,9.40
2019-01-08T18:06:28.787Z,7.57
2019-01-08T18:08:59.241Z,3.87
2019-01-08T18:11:29.503Z,6.80
2019-01-08T18:13:59.707Z,7.17
2019-01-08T18:16:29.980Z,6.50
2019-01-08T18:19:00.424Z,5.93
2019-01-08T18:21:30.777Z,6.37
2019-01-08T18:24:01.018Z,8.80
2019-01-08T18:26:31.356Z,4.47
2019-01-08T18:29:01.633Z,6.73
2019-01-08T18:31:31.867Z,9.10
2019-01-08T18:34:02.248Z,9.27
2019-01-08T18:36:32.442Z,8.40
2019-01-08T18:39:02.819Z,7.90
2019-01-08T18:41:33.257Z,6.57
2019-01-08T18:44:03.959Z,13.20
2019-01-08T18:46:34.543Z,8.40
2019-01-08T18:49:05.303Z,9.13
2019-01-08T18:51:35.573Z,6.50
2019-01-08T18:54:06.021Z,7.67
2019-01-08T18:56:36.772Z,8.23
2019-01-08T18:59:07.121Z,10.40
2019-01-08T19:01:37.469Z,8.13
2019-01-08T19:04:08.010Z,10.00
2019-01-08T19:06:38.653Z,8.43
2019-01-08T19:09:37.493Z,8.43
2019-01-08T19:12:26.771Z,10.87
2019-01-08T19:14:57.214Z,8.27
2019-01-08T19:17:27.882Z,8.47
2019-01-08T19:19:58.238Z,9.00
2019-01-08T19:22:29.092Z,8.63
2019-01-08T19:24:59.506Z,6.27
2019-01-08T19:27:29.832Z,9.33
2019-01-08T19:30:00.784Z,8.07
2019-01-08T19:32:31.123Z,10.80
2019-01-08T19:35:01.845Z,9.80
2019-01-08T19:37:32.218Z,12.23
2019-01-08T19:40:02.442Z,15.40
2019-01-08T19:42:33.173Z,7.33
2019-01-08T19:45:03.375Z,6.27
2019-01-08T19:47:33.873Z,9.23
2019-01-08T19:50:05.846Z,10.83
2019-01-08T19:52:36.146Z,6.53
2019-01-08T19:55:06.510Z,7.67
2019-01-08T19:57:37.328Z,9.43
2019-01-08T20:00:10.734Z,9.90
2019-01-08T20:02:41.019Z,8.37
2019-01-08T20:05:11.796Z,6.87
2019-01-08T20:07:42.058Z,10.53
2019-01-08T20:10:12.481Z,9.13
2019-01-08T20:12:42.715Z,5.73
2019-01-08T20:15:13.065Z,5.80
2019-01-08T20:17:43.484Z,8.33
2019-01-08T20:20:13.838Z,5.07
2019-01-08T20:22:44.209Z,5.83
2019-01-08T20:25:14.648Z,5.57
2019-01-08T20:27:45.206Z,8.67
2019-01-08T20:30:15.538Z,5.47
2019-01-08T20:32:45.792Z,6.63
2019-01-08T20:35:16.417Z,6.33
2019-01-08T20:37:46.803Z,5.80
2019-01-08T20:40:17.089Z,4.00
2019-01-08T20:42:47.327Z,4.83
2019-01-08T20:45:17.695Z,5.00
2019-01-08T20:47:48.013Z,5.57
2019-01-08T20:50:18.445Z,2.20
2019-01-08T20:52:48.765Z,2.30
2019-01-08T20:55:18.946Z,1.80
2019-01-08T20:57:49.955Z,3.00
2019-01-08T21:00:32.220Z,1.83
2019-01-08T21:03:02.623Z,2.90
2019-01-08T21:05:32.879Z,3.70
2019-01-08T21:08:03.085Z,3.10
2019-01-08T21:10:33.857Z,6.40
2019-01-08T21:13:04.541Z,4.40
2019-01-08T21:15:35.245Z,5.63
2019-01-08T21:18:05.610Z,3.37
2019-01-08T21:20:36.028Z,8.77
2019-01-08T21:23:06.462Z,8.73
2019-01-08T21:25:36.713Z,8.77
2019-01-08T21:28:07.363Z,5.60
2019-01-08T21:30:37.727Z,7.80
2019-01-08T21:33:08.007Z,6.13
2019-01-08T21:35:38.686Z,5.83
2019-01-08T21:38:09.052Z,8.00
2019-01-08T21:40:39.309Z,6.07
2019-01-08T21:43:10.438Z,9.80
2019-01-08T21:45:41.009Z,10.67
2019-01-08T21:48:11.666Z,6.93
2019-01-08T21:50:42.380Z,9.03
2019-01-08T21:53:13.184Z,8.63
2019-01-08T21:55:43.529Z,8.80
2019-01-08T21:58:13.732Z,5.93
2019-01-08T22:00:43.912Z,8.63
2019-01-08T22:03:14.783Z,6.57
2019-01-08T22:05:45.569Z,7.47
2019-01-08T22:08:15.727Z,6.83
2019-01-08T22:10:48.240Z,13.47
2019-01-08T22:13:18.799Z,7.33
2019-01-08T22:15:49.025Z,10.77
2019-01-08T22:18:19.495Z,9.90
2019-01-08T22:20:49.818Z,9.73
2019-01-08T22:23:20.613Z,6.17
2019-01-08T22:25:51.344Z,7.40
2019-01-08T22:28:22.377Z,11.57
2019-01-08T22:30:53.105Z,8.90
2019-01-08T22:33:23.605Z,7.23
2019-01-08T22:35:53.829Z,5.63
2019-01-08T22:38:24.434Z,7.10
2019-01-08T22:40:54.887Z,7.53
2019-01-08T22:43:25.258Z,6.67
2019-01-08T22:45:55.693Z,8.90
2019-01-08T22:48:26.063Z,10.13
2019-01-08T22:50:56.252Z,7.47
2019-01-08T22:53:26.588Z,10.13
2019-01-08T22:55:56.890Z,8.03
2019-01-08T22:58:27.074Z,6.77
2019-01-08T23:01:16.383Z,6.87
2019-01-08T23:03:46.875Z,7.17
2019-01-08T23:06:17.253Z,6.87
2019-01-08T23:08:47.698Z,6.60
2019-01-08T23:11:18.099Z,5.90
2019-01-08T23:13:48.866Z,5.33
2019-01-08T23:16:19.856Z,7.27
2019-01-08T23:18:50.106Z,5.47
2019-01-08T23:21:21.121Z,4.43
2019-01-08T23:23:51.854Z,3.83
2019-01-08T23:26:22.264Z,3.20
2019-01-08T23:28:52.476Z,3.63
2019-01-08T23:31:22.850Z,6.40
2019-01-08T23:33:53.138Z,2.30
2019-01-08T23:36:23.522Z,4.27
2019-01-08T23:38:53.865Z,3.80
2019-01-08T23:41:24.240Z,2.67
2019-01-08T23:43:54.934Z,5.87
2019-01-08T23:46:25.352Z,1.87
2019-01-08T23:48:55.939Z,3.07
2019-01-08T23:51:26.318Z,4.50
2019-01-08T23:53:58.200Z,2.97
2019-01-08T23:56:31.114Z,3.80
2019-01-08T23:59:01.918Z,6.13
